Terminal Aerodrome Forecast
Issued by NWS Quad Cities IA IL

Home | Current Version | Previous Version | Text Only | Print | Product List | Glossary Off
Versions: 1 2 3 4 5 6 7 8 9 10 11 12 13 14 15 16 17 18 19 20 21 22 23 24

130
FTUS43 KDVN 250523
TAFMLI
TAF
KMLI 250523Z 2506/2606 31012G21KT 3SM -SN SCT013 BKN023 OVC035
      TEMPO 2506/2508 2SM -SN BR BKN012 OVC020
     FM250800 32015G25KT P6SM SCT035
     FM251200 30014G22KT P6SM SKC
     FM260000 26006KT P6SM SCT250=

USA.gov is the U.S. government's official web portal to all federal, state and local government web resources and services.